Time;durP1;ratioP1;P1;durP2;ratioP2;P2;SDS_P1;SDS_P2;PMS_P1;PMS_P2;Temp;Humidity;BMP_temperature;BMP_pressure;BME280_temperature;BME280_humidity;BME280_pressure;Samples;Min_cycle;Max_cycle;Signal;HPM_P1;HPM_P2
2021/08/02 00:01:58;;;;;;;0.95;0.50;;;24.30;47.00;;;;;;5051884;28;20037;-61
2021/08/02 00:04:30;;;;;;;0.65;0.40;;;24.30;47.00;;;;;;5050041;28;20033;-62
2021/08/02 00:07:04;;;;;;;1.83;0.70;;;24.20;47.00;;;;;;5053485;28;20052;-62
2021/08/02 00:09:35;;;;;;;0.60;0.47;;;24.20;47.00;;;;;;5052619;28;20364;-61
2021/08/02 00:12:09;;;;;;;1.67;0.60;;;24.20;47.00;;;;;;5052840;28;20428;-61
2021/08/02 00:14:36;;;;;;;1.00;0.50;;;24.20;47.00;;;;;;5053265;28;20047;-61
2021/08/02 00:17:05;;;;;;;0.82;0.43;;;24.20;47.00;;;;;;5056399;28;20332;-61
2021/08/02 00:19:31;;;;;;;2.65;0.60;;;24.20;46.90;;;;;;5056618;28;20165;-62
2021/08/02 00:21:57;;;;;;;1.38;0.47;;;24.20;47.00;;;;;;5056680;28;20471;-61
2021/08/02 00:24:24;;;;;;;1.00;0.75;;;24.20;46.90;;;;;;5056590;28;20021;-61
2021/08/02 00:26:53;;;;;;;0.90;0.60;;;24.20;46.90;;;;;;5056672;28;20025;-61
2021/08/02 00:29:21;;;;;;;1.02;0.60;;;24.20;46.90;;;;;;5056505;28;20047;-61
2021/08/02 00:31:47;;;;;;;0.50;0.43;;;24.20;46.90;;;;;;5056340;28;20044;-63
2021/08/02 00:34:13;;;;;;;1.40;0.60;;;24.10;46.80;;;;;;5056698;28;20040;-61
2021/08/02 00:36:40;;;;;;;0.90;0.55;;;24.10;46.80;;;;;;5056645;28;20032;-62
2021/08/02 00:39:25;;;;;;;1.02;0.57;;;24.20;46.80;;;;;;5056312;28;20049;-60
2021/08/02 00:42:28;;;;;;;0.70;0.40;;;24.10;46.70;;;;;;5056498;28;20106;-60
2021/08/02 00:44:59;;;;;;;0.93;0.60;;;24.10;46.70;;;;;;5037924;28;20082;-61
2021/08/02 00:47:32;;;;;;;2.53;0.68;;;24.10;46.80;;;;;;5038070;28;20344;-61
2021/08/02 00:50:16;;;;;;;1.45;0.57;;;24.10;46.80;;;;;;5056779;28;20158;-62
2021/08/02 00:52:48;;;;;;;1.00;0.50;;;24.10;46.80;;;;;;5037882;28;20452;-61
2021/08/02 00:55:17;;;;;;;1.00;0.35;;;24.10;46.80;;;;;;5038283;28;20115;-61
2021/08/02 00:57:46;;;;;;;1.38;0.65;;;24.10;46.80;;;;;;5038396;28;20433;-61
2021/08/02 01:00:15;;;;;;;1.05;0.50;;;24.10;46.80;;;;;;5034615;28;20040;-62
2021/08/02 01:02:49;;;;;;;1.23;0.60;;;24.10;47.40;;;;;;5056155;28;20033;-62
2021/08/02 01:05:17;;;;;;;1.13;0.60;;;24.00;46.80;;;;;;5037900;28;20155;-61
2021/08/02 01:07:54;;;;;;;1.30;0.55;;;24.10;46.80;;;;;;5038043;28;20372;-62
2021/08/02 01:10:21;;;;;;;1.05;0.60;;;24.00;46.70;;;;;;5036185;28;20099;-62
2021/08/02 01:12:49;;;;;;;0.85;0.57;;;24.00;46.70;;;;;;5031687;28;20533;-61
2021/08/02 01:15:18;;;;;;;0.63;0.60;;;24.00;46.80;;;;;;5037653;28;20124;-61
2021/08/02 01:17:47;;;;;;;1.60;0.77;;;24.00;46.80;;;;;;5055611;28;20040;-61
2021/08/02 01:20:14;;;;;;;1.58;0.70;;;24.00;46.80;;;;;;5055840;28;20068;-61
2021/08/02 01:22:42;;;;;;;1.00;0.75;;;24.00;46.80;;;;;;5055202;28;20037;-61
2021/08/02 01:25:35;;;;;;;0.85;0.43;;;24.00;46.80;;;;;;5055691;28;20029;-59
2021/08/02 01:28:13;;;;;;;1.27;0.63;;;24.00;46.70;;;;;;5054304;28;20025;-62
2021/08/02 01:30:50;;;;;;;0.93;0.50;;;24.00;46.80;;;;;;5035958;28;20461;-61
2021/08/02 01:33:20;;;;;;;0.45;0.40;;;24.00;46.80;;;;;;5050262;28;20032;-61
2021/08/02 01:35:51;;;;;;;1.33;0.60;;;24.00;46.80;;;;;;5037768;28;20025;-62
2021/08/02 01:38:17;;;;;;;1.25;0.50;;;24.00;46.80;;;;;;5055503;28;20045;-61
2021/08/02 01:40:44;;;;;;;0.73;0.50;;;24.00;46.90;;;;;;5037782;28;20480;-63
2021/08/02 01:43:11;;;;;;;1.60;0.70;;;24.00;46.80;;;;;;5037204;28;20132;-60
2021/08/02 01:45:42;;;;;;;1.27;0.60;;;24.00;46.90;;;;;;5055023;28;20033;-60
2021/08/02 01:48:44;;;;;;;0.52;0.50;;;24.00;46.90;;;;;;5055442;28;20032;-61
2021/08/02 01:51:40;;;;;;;0.85;0.50;;;24.00;46.80;;;;;;5009288;28;20087;-61
2021/08/02 01:54:07;;;;;;;0.40;0.40;;;24.00;46.90;;;;;;5054552;28;20389;-64
2021/08/02 01:56:45;;;;;;;0.95;0.60;;;23.90;46.90;;;;;;5036623;28;20037;-61
2021/08/02 01:59:24;;;;;;;0.65;0.40;;;23.90;46.90;;;;;;5037176;28;20025;-61
2021/08/02 02:02:02;;;;;;;0.60;0.50;;;23.90;46.90;;;;;;5054772;28;20044;-60
2021/08/02 02:04:35;;;;;;;1.13;0.68;;;24.00;47.00;;;;;;5037002;28;20036;-63
2021/08/02 02:07:03;;;;;;;1.42;0.60;;;23.90;47.00;;;;;;5037211;28;20079;-62
2021/08/02 02:09:39;;;;;;;0.73;0.43;;;23.90;47.00;;;;;;5035590;28;20508;-61
2021/08/02 02:12:11;;;;;;;1.77;0.60;;;23.90;47.00;;;;;;5035061;28;20111;-61
2021/08/02 02:14:40;;;;;;;0.82;0.50;;;23.90;47.10;;;;;;5035521;28;20021;-62
2021/08/02 02:17:12;;;;;;;;;;;23.90;47.10;;;;;;5037699;28;20025;-62
2021/08/02 02:19:40;;;;;;;0.85;0.40;;;23.90;47.10;;;;;;5054115;28;19917;-60
2021/08/02 02:22:12;;;;;;;0.88;0.43;;;23.90;47.20;;;;;;5037701;28;20063;-61
2021/08/02 02:24:39;;;;;;;0.90;0.60;;;23.90;47.20;;;;;;5054051;28;20044;-61
2021/08/02 02:27:10;;;;;;;0.77;0.50;;;23.90;47.80;;;;;;5036487;28;20040;-59
2021/08/02 02:29:41;;;;;;;0.75;0.40;;;23.90;47.20;;;;;;5036341;28;20033;-61
2021/08/02 02:32:08;;;;;;;0.80;0.55;;;23.90;47.20;;;;;;5036450;28;20050;-60
2021/08/02 02:34:37;;;;;;;0.82;0.50;;;23.90;47.20;;;;;;5053944;28;20086;-61
2021/08/02 02:37:05;;;;;;;0.63;0.60;;;23.90;47.20;;;;;;5053861;28;20036;-62
2021/08/02 02:39:35;;;;;;;1.23;0.68;;;23.80;47.20;;;;;;5030734;28;20041;-62
2021/08/02 02:42:01;;;;;;;1.77;0.57;;;23.90;47.20;;;;;;5036193;28;20039;-62
2021/08/02 02:44:30;;;;;;;1.08;0.50;;;23.80;47.20;;;;;;5036505;28;20021;-62
2021/08/02 02:46:58;;;;;;;2.63;0.75;;;23.80;47.20;;;;;;5049979;28;20112;-64
2021/08/02 02:49:26;;;;;;;0.90;0.63;;;23.80;47.20;;;;;;5054089;28;20036;-61
2021/08/02 02:51:54;;;;;;;1.10;0.55;;;23.80;47.20;;;;;;5036068;28;20025;-62
2021/08/02 02:54:22;;;;;;;1.40;0.70;;;23.80;47.20;;;;;;5035447;28;20033;-61
2021/08/02 02:56:53;;;;;;;1.23;0.63;;;23.80;47.20;;;;;;5053511;28;20040;-63
2021/08/02 02:59:19;;;;;;;1.00;0.60;;;23.80;47.20;;;;;;5048304;28;20076;-62
2021/08/02 03:01:47;;;;;;;1.00;0.55;;;23.80;47.20;;;;;;5016466;28;20064;-63
2021/08/02 03:04:24;;;;;;;1.10;0.50;;;23.80;47.30;;;;;;5035323;28;20040;-61
2021/08/02 03:06:53;;;;;;;1.20;0.50;;;23.80;47.30;;;;;;5036044;28;20028;-60
2021/08/02 03:09:19;;;;;;;0.65;0.50;;;23.80;47.30;;;;;;5053772;28;20067;-60
2021/08/02 03:11:47;;;;;;;1.30;0.60;;;23.80;47.30;;;;;;5035484;28;20140;-59
2021/08/02 03:14:15;;;;;;;1.63;0.77;;;23.80;47.30;;;;;;5053709;28;20059;-60
2021/08/02 03:16:41;;;;;;;0.93;0.60;;;23.70;47.20;;;;;;5053636;28;20033;-60
2021/08/02 03:19:06;;;;;;;1.10;0.55;;;23.80;47.30;;;;;;5053632;28;20051;-62
2021/08/02 03:21:32;;;;;;;1.27;0.80;;;23.80;47.30;;;;;;5053178;28;20035;-62
2021/08/02 03:24:05;;;;;;;1.13;0.73;;;23.80;47.30;;;;;;5052990;28;20078;-61
2021/08/02 03:26:37;;;;;;;1.15;0.60;;;23.80;47.20;;;;;;5035782;28;20056;-64
2021/08/02 03:29:15;;;;;;;0.50;0.40;;;23.80;47.20;;;;;;5053664;28;20039;-61
2021/08/02 03:31:56;;;;;;;1.17;0.70;;;23.70;47.20;;;;;;5053364;28;20055;-60
2021/08/02 03:34:27;;;;;;;0.60;0.50;;;23.80;47.20;;;;;;5053430;28;20047;-63
2021/08/02 03:36:54;;;;;;;1.35;0.60;;;23.70;47.20;;;;;;5052998;28;20416;-61
2021/08/02 03:39:22;;;;;;;0.43;0.43;;;23.70;47.30;;;;;;5053321;28;20037;-62
2021/08/02 03:41:50;;;;;;;1.27;0.50;;;23.70;47.20;;;;;;5052453;28;20044;-61
2021/08/02 03:44:17;;;;;;;0.55;0.52;;;23.70;47.30;;;;;;5053499;28;20047;-63
2021/08/02 03:46:43;;;;;;;0.75;0.50;;;23.70;47.30;;;;;;5052597;28;20104;-62
2021/08/02 03:49:10;;;;;;;1.30;0.60;;;23.70;47.20;;;;;;5053428;28;20033;-61
2021/08/02 03:51:45;;;;;;;1.17;0.50;;;23.70;47.20;;;;;;5056252;28;20021;-60
2021/08/02 03:54:11;;;;;;;1.13;0.50;;;23.70;47.20;;;;;;5057768;28;20037;-61
2021/08/02 03:56:38;;;;;;;1.88;0.80;;;23.70;47.20;;;;;;5057029;28;20029;-62
2021/08/02 03:59:04;;;;;;;1.00;0.70;;;23.70;47.20;;;;;;5056944;28;20057;-63
2021/08/02 04:01:37;;;;;;;0.82;0.50;;;23.70;47.20;;;;;;5039708;28;20068;-62
2021/08/02 04:04:04;;;;;;;2.28;0.50;;;23.70;47.20;;;;;;5039460;28;20082;-61
2021/08/02 04:06:30;;;;;;;0.80;0.60;;;23.70;47.80;;;;;;5057169;28;20348;-61
2021/08/02 04:08:55;;;;;;;0.55;0.40;;;23.70;47.20;;;;;;5056762;28;20039;-62
2021/08/02 04:11:21;;;;;;;0.63;0.40;;;23.70;47.20;;;;;;5056558;28;20460;-62
2021/08/02 04:13:47;;;;;;;0.50;0.38;;;23.70;47.20;;;;;;5039020;28;20119;-61
2021/08/02 04:16:13;;;;;;;0.88;0.30;;;23.70;47.20;;;;;;5038943;28;20104;-63
2021/08/02 04:18:40;;;;;;;0.82;0.60;;;23.70;47.20;;;;;;5039168;28;20102;-61
2021/08/02 04:21:06;;;;;;;1.02;0.47;;;23.70;47.20;;;;;;5056912;28;20029;-61
2021/08/02 04:23:32;;;;;;;0.88;0.45;;;23.70;47.20;;;;;;5056588;28;20029;-62
2021/08/02 04:25:57;;;;;;;1.02;0.40;;;23.70;47.20;;;;;;5056680;28;20032;-62
2021/08/02 04:28:23;;;;;;;0.65;0.40;;;23.70;47.20;;;;;;5056869;28;20060;-63
2021/08/02 04:30:49;;;;;;;0.73;0.40;;;23.70;47.20;;;;;;5056565;28;20029;-63
2021/08/02 04:33:15;;;;;;;0.43;0.40;;;23.70;47.20;;;;;;5057164;28;20128;-61
2021/08/02 04:35:42;;;;;;;1.48;0.50;;;23.70;47.20;;;;;;5056958;28;20064;-62
2021/08/02 04:38:08;;;;;;;0.35;0.30;;;23.70;47.20;;;;;;5056189;28;20028;-60
2021/08/02 04:40:34;;;;;;;0.68;0.50;;;23.70;47.20;;;;;;5056841;28;20059;-60
2021/08/02 04:43:00;;;;;;;0.77;0.50;;;23.70;47.20;;;;;;5056803;28;20449;-60
2021/08/02 04:45:25;;;;;;;0.50;0.50;;;23.60;47.20;;;;;;5056835;28;20036;-61
2021/08/02 04:47:52;;;;;;;0.98;0.50;;;23.70;47.20;;;;;;5055893;28;20032;-59
2021/08/02 04:50:18;;;;;;;0.88;0.47;;;23.60;47.20;;;;;;5055706;28;20035;-60
2021/08/02 04:52:46;;;;;;;1.10;0.52;;;23.70;47.20;;;;;;5056480;28;20029;-58
2021/08/02 04:55:12;;;;;;;0.35;0.30;;;23.70;47.30;;;;;;5056134;28;20101;-59
2021/08/02 04:57:38;;;;;;;1.35;0.45;;;23.60;47.20;;;;;;5055873;28;20116;-57
2021/08/02 05:00:06;;;;;;;1.13;0.60;;;23.70;47.30;;;;;;5037150;28;20456;-59
2021/08/02 05:02:32;;;;;;;0.60;0.30;;;23.70;47.30;;;;;;5056357;28;20056;-59
2021/08/02 05:04:57;;;;;;;1.10;0.50;;;23.70;47.30;;;;;;5055217;28;20056;-60
2021/08/02 05:07:23;;;;;;;0.40;0.40;;;23.60;47.20;;;;;;5055822;28;21725;-60
2021/08/02 05:09:49;;;;;;;1.17;0.40;;;23.70;47.30;;;;;;5056256;28;20035;-57
2021/08/02 05:12:15;;;;;;;1.20;0.60;;;23.70;47.30;;;;;;5055153;28;20063;-58
2021/08/02 05:14:41;;;;;;;0.88;0.50;;;23.60;47.30;;;;;;5038523;28;20028;-61
2021/08/02 05:17:07;;;;;;;1.38;0.73;;;23.70;47.40;;;;;;5055937;28;20119;-59
2021/08/02 05:19:33;;;;;;;0.30;0.30;;;23.60;47.30;;;;;;5055360;28;20179;-59
2021/08/02 05:21:59;;;;;;;0.88;0.40;;;23.60;47.30;;;;;;5055636;28;20475;-61
2021/08/02 05:24:25;;;;;;;0.73;0.30;;;23.70;47.40;;;;;;5055842;28;20512;-60
2021/08/02 05:26:51;;;;;;;1.45;0.47;;;23.60;47.30;;;;;;5055681;28;20052;-60
2021/08/02 05:29:17;;;;;;;0.63;0.45;;;23.60;47.30;;;;;;5055739;28;20039;-59
2021/08/02 05:31:43;;;;;;;0.50;0.40;;;23.60;47.30;;;;;;5054910;28;20036;-59
2021/08/02 05:34:11;;;;;;;0.63;0.40;;;23.70;47.40;;;;;;5055098;28;20036;-59
2021/08/02 05:36:38;;;;;;;0.70;0.30;;;23.70;47.40;;;;;;5055721;28;20029;-59
2021/08/02 05:39:05;;;;;;;0.95;0.50;;;23.60;47.30;;;;;;5055215;28;20037;-59
2021/08/02 05:41:31;;;;;;;0.50;0.32;;;23.60;47.30;;;;;;5055695;28;20113;-60
2021/08/02 05:43:56;;;;;;;1.60;0.70;;;23.60;47.30;;;;;;5054431;28;20025;-61
2021/08/02 05:46:22;;;;;;;1.38;0.35;;;23.60;47.40;;;;;;5054757;28;20037;-60
2021/08/02 05:48:48;;;;;;;0.60;0.40;;;23.60;47.40;;;;;;5055091;28;20178;-60
2021/08/02 05:51:14;;;;;;;0.88;0.40;;;23.60;47.40;;;;;;5055267;28;20040;-62
2021/08/02 05:53:40;;;;;;;1.30;0.50;;;23.70;47.50;;;;;;5055093;28;20036;-59
2021/08/02 05:56:06;;;;;;;0.85;0.50;;;23.60;47.40;;;;;;5054728;28;20028;-60
2021/08/02 05:58:31;;;;;;;0.40;0.32;;;23.70;47.50;;;;;;5054507;28;20124;-60
2021/08/02 06:00:57;;;;;;;0.93;0.40;;;23.60;47.40;;;;;;5054298;28;20029;-58
2021/08/02 06:03:23;;;;;;;0.95;0.40;;;23.70;47.50;;;;;;5054760;28;20048;-57
2021/08/02 06:05:49;;;;;;;0.55;0.20;;;23.70;47.50;;;;;;5055169;28;20029;-60
2021/08/02 06:08:15;;;;;;;0.90;0.40;;;23.70;47.50;;;;;;5054846;28;20025;-59
2021/08/02 06:10:40;;;;;;;0.75;0.40;;;23.70;47.50;;;;;;5054045;28;20074;-59
2021/08/02 06:13:06;;;;;;;0.80;0.45;;;23.70;47.50;;;;;;5054086;28;20381;-60
2021/08/02 06:15:32;;;;;;;0.52;0.40;;;23.70;47.50;;;;;;5055036;28;20029;-58
2021/08/02 06:17:57;;;;;;;1.70;0.50;;;23.70;47.60;;;;;;5053099;28;20033;-58
2021/08/02 06:20:27;;;;;;;0.50;0.40;;;23.70;47.70;;;;;;5053266;28;20332;-59
2021/08/02 06:22:53;;;;;;;0.82;0.40;;;23.70;47.70;;;;;;5053989;28;20021;-57
2021/08/02 06:25:21;;;;;;;0.70;0.30;;;23.70;48.30;;;;;;5036955;28;20062;-59
2021/08/02 06:27:47;;;;;;;0.50;0.40;;;23.70;47.70;;;;;;5045811;28;20029;-57
2021/08/02 06:30:13;;;;;;;1.00;0.60;;;23.70;47.70;;;;;;5052495;28;20094;-60
2021/08/02 06:32:39;;;;;;;0.85;0.30;;;23.70;47.70;;;;;;5053969;28;20079;-61
2021/08/02 06:35:05;;;;;;;0.85;0.50;;;23.80;47.70;;;;;;5054960;28;20025;-57
2021/08/02 06:37:31;;;;;;;1.50;0.60;;;23.80;47.50;;;;;;5036428;28;20374;-58
2021/08/02 06:39:57;;;;;;;0.73;0.50;;;23.90;47.50;;;;;;5053602;28;20037;-58
2021/08/02 06:42:23;;;;;;;0.47;0.30;;;23.90;47.40;;;;;;5054736;28;20033;-61
2021/08/02 06:44:48;;;;;;;1.20;0.50;;;24.00;47.40;;;;;;5054713;28;20025;-62
2021/08/02 06:47:14;;;;;;;0.88;0.55;;;24.00;47.20;;;;;;5052143;28;20095;-61
2021/08/02 06:49:40;;;;;;;0.73;0.40;;;24.10;47.20;;;;;;5053038;28;20082;-59
2021/08/02 06:52:07;;;;;;;1.15;0.50;;;24.10;47.10;;;;;;5053726;28;20029;-58
2021/08/02 06:54:32;;;;;;;0.80;0.40;;;24.10;47.00;;;;;;5054598;28;20036;-59
2021/08/02 06:56:58;;;;;;;0.52;0.40;;;24.20;47.00;;;;;;5053888;28;20356;-57
2021/08/02 06:59:24;;;;;;;0.40;0.30;;;24.20;47.00;;;;;;5052361;28;20037;-57
2021/08/02 07:01:50;;;;;;;0.65;0.45;;;24.30;47.00;;;;;;5035993;28;20037;-60
2021/08/02 07:04:16;;;;;;;1.38;0.50;;;24.30;46.90;;;;;;5053000;28;20028;-63
2021/08/02 07:06:44;;;;;;;0.43;0.38;;;24.30;46.80;;;;;;5053826;28;20028;-62
2021/08/02 07:09:11;;;;;;;1.45;0.25;;;24.40;46.80;;;;;;5053401;28;20040;-60
2021/08/02 07:11:42;;;;;;;0.75;0.40;;;24.40;46.80;;;;;;5052938;28;20123;-60
2021/08/02 07:14:11;;;;;;;0.82;0.50;;;24.40;46.70;;;;;;5050380;28;20055;-57
2021/08/02 07:16:37;;;;;;;0.65;0.30;;;24.50;46.70;;;;;;5052840;28;20040;-61
2021/08/02 07:19:03;;;;;;;0.52;0.40;;;24.50;46.70;;;;;;5053307;28;20355;-60
2021/08/02 07:21:29;;;;;;;0.60;0.40;;;24.60;46.70;;;;;;5052562;28;20367;-60
2021/08/02 07:23:55;;;;;;;0.40;0.30;;;24.60;46.60;;;;;;5053308;28;20029;-59
2021/08/02 07:26:21;;;;;;;0.60;0.60;;;24.60;46.50;;;;;;5051713;28;20048;-59
2021/08/02 07:28:47;;;;;;;1.02;0.40;;;24.60;46.40;;;;;;5045842;28;20504;-61
2021/08/02 07:31:15;;;;;;;0.90;0.40;;;24.70;46.40;;;;;;5046061;28;20029;-58
2021/08/02 07:33:41;;;;;;;0.82;0.40;;;24.70;46.30;;;;;;5051648;28;20432;-59
2021/08/02 07:36:07;;;;;;;0.40;0.30;;;24.70;46.20;;;;;;5035575;28;20171;-60
2021/08/02 07:38:37;;;;;;;0.30;0.30;;;24.70;46.10;;;;;;5053718;28;20102;-58
2021/08/02 07:41:03;;;;;;;0.60;0.32;;;24.70;46.00;;;;;;5053291;28;20025;-59
2021/08/02 07:43:30;;;;;;;1.30;0.50;;;24.80;45.90;;;;;;5053289;28;20048;-58
2021/08/02 07:45:55;;;;;;;0.88;0.40;;;24.80;45.80;;;;;;5034539;28;20025;-58
2021/08/02 07:48:22;;;;;;;0.77;0.50;;;24.70;45.70;;;;;;5052285;28;20033;-59
2021/08/02 07:50:48;;;;;;;0.30;0.30;;;24.80;45.60;;;;;;5052897;28;20057;-59
2021/08/02 07:53:13;;;;;;;0.43;0.30;;;24.80;45.50;;;;;;5052214;28;20061;-60
2021/08/02 07:55:39;;;;;;;0.60;0.40;;;24.80;45.40;;;;;;5053663;28;20029;-60
2021/08/02 07:58:09;;;;;;;1.05;0.50;;;24.80;45.30;;;;;;5053103;28;20036;-58
2021/08/02 08:00:35;;;;;;;0.38;0.38;;;24.80;45.20;;;;;;5047234;28;20033;-60
2021/08/02 08:03:01;;;;;;;0.73;0.45;;;24.80;45.10;;;;;;5053003;28;20033;-60
2021/08/02 08:05:29;;;;;;;0.85;0.40;;;24.70;45.00;;;;;;5051238;28;20106;-60
2021/08/02 08:07:55;;;;;;;1.25;0.45;;;24.80;45.00;;;;;;5016918;28;20029;-58
2021/08/02 08:10:24;;;;;;;2.15;0.50;;;24.80;44.90;;;;;;5048365;28;20037;-58
2021/08/02 08:12:50;;;;;;;0.52;0.38;;;24.80;44.70;;;;;;5053175;28;20063;-61
2021/08/02 08:15:18;;;;;;;0.50;0.40;;;24.80;44.60;;;;;;5053367;28;20071;-60
2021/08/02 08:17:44;;;;;;;0.30;0.22;;;24.80;44.50;;;;;;5052586;28;20423;-59
2021/08/02 08:20:13;;;;;;;0.82;0.30;;;24.80;44.40;;;;;;5052614;28;20137;-59
2021/08/02 08:22:39;;;;;;;0.77;0.38;;;24.80;44.30;;;;;;5046482;28;20065;-60
2021/08/02 08:25:05;;;;;;;1.08;0.60;;;24.80;44.30;;;;;;5040915;28;20029;-59
2021/08/02 08:27:31;;;;;;;0.45;0.30;;;24.80;44.20;;;;;;5052465;28;20414;-61
2021/08/02 08:29:57;;;;;;;0.57;0.40;;;24.80;44.20;;;;;;5052606;28;20037;-57
2021/08/02 08:32:23;;;;;;;1.58;0.80;;;24.80;44.10;;;;;;5048681;28;20091;-59
2021/08/02 08:34:49;;;;;;;0.30;0.30;;;24.80;44.10;;;;;;5034916;28;20349;-59
2021/08/02 08:37:15;;;;;;;0.40;0.30;;;24.80;44.00;;;;;;5036873;28;20040;-58
2021/08/02 08:39:41;;;;;;;0.55;0.40;;;24.80;44.00;;;;;;5056651;28;20080;-60
2021/08/02 08:42:07;;;;;;;0.75;0.40;;;24.90;44.00;;;;;;5038355;28;20103;-59
2021/08/02 08:44:34;;;;;;;0.40;0.28;;;24.90;44.00;;;;;;5056540;28;20029;-60
2021/08/02 08:47:00;;;;;;;1.20;0.45;;;24.90;43.90;;;;;;5056371;28;20052;-58
2021/08/02 08:49:26;;;;;;;0.90;0.30;;;24.80;43.80;;;;;;5055208;28;20491;-60
2021/08/02 08:51:54;;;;;;;0.85;0.30;;;24.90;43.80;;;;;;5056469;28;20024;-57
2021/08/02 08:54:19;;;;;;;0.82;0.40;;;24.80;43.60;;;;;;5056530;28;20094;-59
2021/08/02 08:56:45;;;;;;;0.60;0.40;;;24.80;43.60;;;;;;5056530;28;20045;-59
2021/08/02 08:59:13;;;;;;;1.55;0.40;;;24.90;43.50;;;;;;5056073;28;20060;-58
2021/08/02 09:01:39;;;;;;;0.38;0.17;;;24.80;43.30;;;;;;5055405;28;20045;-58
2021/08/02 09:04:05;;;;;;;0.43;0.30;;;24.80;43.20;;;;;;5055445;28;20108;-59
2021/08/02 09:06:33;;;;;;;0.70;0.40;;;24.90;43.20;;;;;;5056339;28;20039;-59
2021/08/02 09:08:58;;;;;;;0.73;0.30;;;24.80;43.10;;;;;;5055229;28;20039;-58
2021/08/02 09:11:25;;;;;;;0.40;0.30;;;24.80;42.90;;;;;;5054612;28;20053;-57
2021/08/02 09:13:55;;;;;;;0.80;0.50;;;24.90;42.90;;;;;;5055662;28;20040;-59
2021/08/02 09:16:26;;;;;;;0.98;0.45;;;24.80;42.80;;;;;;5056056;28;20037;-59
2021/08/02 09:19:07;;;;;;;0.43;0.30;;;24.80;42.80;;;;;;5056275;28;20033;-57
2021/08/02 09:21:43;;;;;;;0.50;0.30;;;24.80;42.70;;;;;;5055223;28;20435;-56
2021/08/02 09:24:09;;;;;;;0.20;0.20;;;24.80;42.60;;;;;;5056041;28;20033;-59
2021/08/02 09:26:38;;;;;;;0.40;0.25;;;24.80;42.70;;;;;;5053235;28;20072;-60
2021/08/02 09:29:05;;;;;;;1.13;0.50;;;24.80;42.60;;;;;;5056073;28;20115;-59
2021/08/02 09:31:39;;;;;;;1.35;0.38;;;24.80;43.20;;;;;;5055621;28;20436;-59
2021/08/02 09:34:07;;;;;;;0.73;0.35;;;24.80;42.50;;;;;;5055719;28;20031;-56
2021/08/02 09:36:44;;;;;;;1.70;0.47;;;24.80;42.50;;;;;;5053071;28;20021;-59
2021/08/02 09:39:15;;;;;;;1.63;0.85;;;24.80;42.40;;;;;;5053230;28;20040;-59
2021/08/02 09:41:43;;;;;;;1.92;0.43;;;24.80;42.50;;;;;;5054699;28;20045;-58
2021/08/02 09:44:22;;;;;;;0.52;0.32;;;24.80;42.50;;;;;;5054226;28;20029;-59
2021/08/02 09:47:03;;;;;;;0.70;0.43;;;24.80;42.30;;;;;;5054512;28;20036;-59
2021/08/02 09:49:44;;;;;;;0.63;0.38;;;24.80;42.40;;;;;;5053126;28;20341;-52
2021/08/02 09:52:09;;;;;;;0.32;0.30;;;24.80;42.40;;;;;;5054764;28;20037;-56
2021/08/02 09:54:35;;;;;;;0.60;0.40;;;24.80;42.40;;;;;;5053455;28;20056;-57
2021/08/02 09:57:01;;;;;;;0.40;0.20;;;24.80;42.40;;;;;;5053691;28;20040;-59
2021/08/02 09:59:28;;;;;;;1.95;0.50;;;24.80;42.40;;;;;;5050648;28;20044;-59
2021/08/02 10:01:56;;;;;;;0.75;0.32;;;24.80;42.40;;;;;;5053340;28;20040;-57
2021/08/02 10:04:23;;;;;;;0.60;0.38;;;24.80;42.40;;;;;;5054179;28;20035;-59
2021/08/02 10:06:50;;;;;;;1.00;0.40;;;24.80;42.30;;;;;;5054267;28;20123;-57
2021/08/02 10:09:16;;;;;;;0.88;0.40;;;24.80;42.30;;;;;;5052364;28;20040;-59
2021/08/02 10:11:42;;;;;;;0.32;0.20;;;24.80;42.30;;;;;;5053191;28;20074;-57
2021/08/02 10:14:12;;;;;;;0.35;0.20;;;24.90;42.30;;;;;;5054173;28;20436;-59
2021/08/02 10:16:43;;;;;;;1.05;0.60;;;24.90;42.40;;;;;;5052461;28;20048;-62
2021/08/02 10:19:11;;;;;;;0.65;0.30;;;24.80;42.40;;;;;;5053655;28;20091;-65
2021/08/02 10:21:41;;;;;;;0.85;0.40;;;24.80;42.50;;;;;;5052848;28;20044;-63
2021/08/02 10:24:10;;;;;;;1.40;0.30;;;24.90;42.70;;;;;;5035942;28;20047;-62
2021/08/02 10:26:38;;;;;;;0.70;0.30;;;24.90;43.30;;;;;;5054044;28;20025;-63
2021/08/02 10:29:07;;;;;;;0.40;0.30;;;24.90;42.70;;;;;;5053145;28;20037;-63
2021/08/02 10:31:46;;;;;;;1.00;0.43;;;24.90;42.60;;;;;;5029944;28;20124;-61
2021/08/02 10:34:21;;;;;;;0.88;0.30;;;24.90;42.50;;;;;;5048126;28;20029;-62
2021/08/02 10:36:58;;;;;;;0.77;0.30;;;24.90;42.50;;;;;;5045130;28;20128;-61
2021/08/02 10:39:28;;;;;;;0.35;0.25;;;24.90;42.40;;;;;;5053983;28;20032;-62
2021/08/02 10:42:08;;;;;;;0.98;0.40;;;24.90;42.30;;;;;;5053877;28;20032;-62
2021/08/02 10:44:33;;;;;;;0.80;0.40;;;24.90;42.20;;;;;;5052530;28;20064;-62
2021/08/02 10:47:01;;;;;;;0.70;0.30;;;25.00;42.30;;;;;;5045095;28;20067;-61
2021/08/02 10:49:28;;;;;;;0.57;0.30;;;24.90;42.20;;;;;;5053287;28;20043;-61
2021/08/02 10:51:55;;;;;;;0.82;0.68;;;25.00;42.20;;;;;;5053629;28;20408;-61
2021/08/02 10:54:22;;;;;;;0.73;0.43;;;24.90;42.10;;;;;;5034475;28;20356;-62
2021/08/02 10:56:54;;;;;;;1.15;0.47;;;25.00;42.00;;;;;;5033169;28;20108;-61
2021/08/02 10:59:21;;;;;;;0.47;0.40;;;25.00;41.90;;;;;;5051756;28;20120;-61
2021/08/02 11:01:53;;;;;;;0.38;0.30;;;25.00;41.90;;;;;;5035676;28;20044;-63
2021/08/02 11:04:23;;;;;;;0.63;0.30;;;25.00;41.70;;;;;;5052741;28;20059;-61
2021/08/02 11:06:54;;;;;;;0.85;0.20;;;25.00;41.70;;;;;;5053231;28;20445;-62
2021/08/02 11:09:30;;;;;;;1.58;0.40;;;25.00;41.60;;;;;;5052217;28;20053;-61
2021/08/02 11:12:22;;;;;;;0.30;0.22;;;25.00;41.50;;;;;;5051835;28;20040;-63
2021/08/02 11:14:53;;;;;;;0.68;0.40;;;25.10;41.40;;;;;;5042655;28;20049;-62
2021/08/02 11:17:24;;;;;;;0.40;0.28;;;25.10;41.40;;;;;;5024167;28;20065;-61
2021/08/02 11:20:10;;;;;;;0.63;0.30;;;25.10;41.40;;;;;;5041990;28;20044;-63
2021/08/02 11:22:54;;;;;;;0.93;0.32;;;25.10;41.20;;;;;;5032237;28;20029;-60
2021/08/02 11:25:25;;;;;;;0.40;0.30;;;25.10;41.20;;;;;;5047724;28;20559;-58
2021/08/02 11:27:53;;;;;;;0.60;0.38;;;25.10;41.20;;;;;;5053001;28;20061;-61
2021/08/02 11:30:20;;;;;;;0.82;0.40;;;25.10;41.30;;;;;;5052829;28;20029;-61
2021/08/02 11:32:46;;;;;;;0.50;0.30;;;25.10;41.20;;;;;;5053906;28;20345;-61
2021/08/02 11:35:12;;;;;;;0.47;0.32;;;25.10;41.20;;;;;;5049148;28;20044;-62
2021/08/02 11:37:38;;;;;;;0.55;0.30;;;25.20;41.10;;;;;;5033685;28;20425;-61
2021/08/02 11:40:12;;;;;;;0.70;0.32;;;25.20;41.10;;;;;;5046413;28;20144;-63
2021/08/02 11:42:40;;;;;;;0.95;0.30;;;25.20;41.10;;;;;;5053583;28;20106;-60
2021/08/02 11:45:07;;;;;;;0.80;0.40;;;25.20;41.10;;;;;;5051960;28;20513;-59
2021/08/02 11:47:43;;;;;;;1.13;0.30;;;25.20;41.00;;;;;;5053396;28;20329;-57
2021/08/02 11:50:10;;;;;;;2.58;0.50;;;25.20;40.90;;;;;;5053080;28;20021;-61
2021/08/02 11:52:36;;;;;;;0.57;0.40;;;25.20;41.10;;;;;;5053423;28;20041;-59
2021/08/02 11:55:04;;;;;;;0.38;0.38;;;25.20;41.00;;;;;;5053672;28;20102;-61
2021/08/02 11:57:30;;;;;;;0.40;0.30;;;25.30;41.10;;;;;;5054032;28;20108;-60
2021/08/02 12:00:05;;;;;;;0.60;0.28;;;25.20;41.00;;;;;;5052833;28;20036;-61
2021/08/02 12:02:43;;;;;;;1.38;0.40;;;25.30;40.90;;;;;;5052536;28;20444;-56
2021/08/02 12:05:25;;;;;;;1.20;0.40;;;25.30;40.80;;;;;;5053461;28;21195;-58
2021/08/02 12:07:52;;;;;;;0.57;0.38;;;25.30;40.50;;;;;;5053263;28;20416;-56
2021/08/02 12:10:23;;;;;;;1.00;0.40;;;25.30;40.40;;;;;;5052827;28;20041;-59
2021/08/02 12:13:07;;;;;;;0.63;0.30;;;25.30;40.30;;;;;;5056583;28;20033;-61
2021/08/02 12:15:34;;;;;;;1.02;0.40;;;25.30;40.00;;;;;;5057491;28;20361;-58
2021/08/02 12:18:00;;;;;;;0.30;0.30;;;25.30;40.10;;;;;;5056639;28;20335;-61
2021/08/02 12:20:38;;;;;;;0.40;0.30;;;25.30;39.90;;;;;;5057031;28;20047;-61
2021/08/02 12:23:06;;;;;;;0.30;0.30;;;25.40;39.80;;;;;;5038249;28;20445;-62
2021/08/02 12:25:37;;;;;;;1.02;0.40;;;25.40;39.90;;;;;;5056807;28;20061;-61
2021/08/02 12:28:06;;;;;;;0.95;0.40;;;25.40;39.90;;;;;;5055816;28;20078;-61
2021/08/02 12:30:34;;;;;;;0.45;0.30;;;25.40;39.90;;;;;;5055855;28;20112;-60
2021/08/02 12:32:59;;;;;;;0.75;0.30;;;25.40;39.90;;;;;;5056358;28;20056;-60
2021/08/02 12:35:25;;;;;;;0.40;0.40;;;25.40;39.80;;;;;;5056800;28;20388;-60
2021/08/02 12:37:51;;;;;;;0.38;0.38;;;25.40;39.70;;;;;;5056773;28;20086;-58
2021/08/02 12:40:18;;;;;;;0.73;0.30;;;25.40;39.60;;;;;;5056024;28;20113;-59
2021/08/02 12:42:47;;;;;;;1.17;0.55;;;25.40;39.40;;;;;;5055694;28;20037;-60
2021/08/02 12:45:14;;;;;;;1.05;0.40;;;25.40;39.30;;;;;;5054983;28;20029;-60
2021/08/02 12:47:41;;;;;;;1.13;0.40;;;25.40;39.30;;;;;;5039646;28;20041;-58
2021/08/02 12:50:09;;;;;;;0.98;0.40;;;25.40;39.20;;;;;;5028516;28;20552;-57
2021/08/02 12:52:35;;;;;;;0.40;0.30;;;25.40;39.20;;;;;;5056285;28;20108;-58
2021/08/02 12:55:03;;;;;;;1.15;0.38;;;25.40;39.10;;;;;;5055629;28;20151;-59
2021/08/02 12:57:30;;;;;;;0.93;0.50;;;25.40;39.20;;;;;;5050507;28;20449;-59